createdAt,value
2017-09-18T00:01:32.668Z,12.10
2017-09-18T00:03:59.572Z,12.10
2017-09-18T00:06:25.782Z,12.10
2017-09-18T00:08:51.953Z,12.10
2017-09-18T00:11:18.144Z,11.90
2017-09-18T00:13:44.340Z,11.60
2017-09-18T00:16:10.504Z,11.60
2017-09-18T00:18:36.715Z,11.80
2017-09-18T00:21:02.927Z,11.80
2017-09-18T00:23:29.093Z,11.90
2017-09-18T00:25:57.084Z,11.80
2017-09-18T00:28:23.312Z,11.80
2017-09-18T00:30:49.510Z,11.80
2017-09-18T00:33:15.768Z,11.80
2017-09-18T00:35:41.962Z,11.70
2017-09-18T00:38:08.153Z,11.50
2017-09-18T00:40:35.099Z,11.50
2017-09-18T00:43:02.016Z,11.50
2017-09-18T00:45:28.249Z,11.40
2017-09-18T00:47:54.449Z,11.40
2017-09-18T00:50:20.648Z,11.50
2017-09-18T00:52:46.824Z,11.50
2017-09-18T00:55:13.009Z,11.50
2017-09-18T00:57:39.184Z,11.50
2017-09-18T01:00:05.380Z,11.40
2017-09-18T01:02:31.578Z,11.40
2017-09-18T01:04:57.746Z,11.20
2017-09-18T01:07:23.904Z,11.10
2017-09-18T01:09:50.082Z,11.00
2017-09-18T01:12:16.256Z,10.90
2017-09-18T01:14:42.420Z,10.80
2017-09-18T01:17:08.592Z,10.80
2017-09-18T01:19:34.799Z,10.70
2017-09-18T01:22:01.007Z,10.60
2017-09-18T01:24:27.179Z,10.50
2017-09-18T01:26:53.367Z,10.40
2017-09-18T01:29:19.535Z,10.40
2017-09-18T01:31:45.713Z,10.40
2017-09-18T01:34:11.902Z,10.30
2017-09-18T01:36:38.063Z,10.30
2017-09-18T01:39:05.011Z,10.30
2017-09-18T01:41:31.201Z,10.30
2017-09-18T01:43:57.354Z,10.20
2017-09-18T01:46:24.271Z,10.20
2017-09-18T01:48:50.452Z,10.20
2017-09-18T01:51:16.651Z,10.20
2017-09-18T01:53:43.556Z,10.10
2017-09-18T01:56:09.739Z,10.00
2017-09-18T01:58:35.919Z,10.00
2017-09-18T02:01:02.107Z,9.90
2017-09-18T02:03:28.286Z,9.80
2017-09-18T02:05:54.478Z,9.80
2017-09-18T02:08:20.642Z,9.70
2017-09-18T02:10:46.807Z,9.70
2017-09-18T02:13:13.004Z,9.70
2017-09-18T02:15:39.152Z,9.80
2017-09-18T02:18:06.077Z,9.80
2017-09-18T02:20:33.731Z,9.80
2017-09-18T02:22:59.918Z,9.80
2017-09-18T02:25:26.140Z,9.80
2017-09-18T02:27:52.295Z,9.80
2017-09-18T02:30:18.464Z,9.70
2017-09-18T02:32:52.379Z,9.70
2017-09-18T02:35:19.317Z,9.70
2017-09-18T02:37:53.300Z,9.60
2017-09-18T02:40:19.500Z,9.60
2017-09-18T02:42:45.650Z,9.60
2017-09-18T02:45:11.812Z,9.60
2017-09-18T02:47:38.723Z,9.40
2017-09-18T02:50:04.886Z,9.30
2017-09-18T02:52:31.813Z,9.20
2017-09-18T02:54:58.736Z,9.20
2017-09-18T02:57:24.887Z,9.20
2017-09-18T02:59:51.079Z,9.10
2017-09-18T03:02:17.263Z,9.10
2017-09-18T03:04:44.173Z,9.10
2017-09-18T03:07:10.321Z,9.10
2017-09-18T03:09:37.277Z,9.00
2017-09-18T03:12:04.212Z,9.00
2017-09-18T03:14:31.131Z,9.00
2017-09-18T03:16:57.364Z,9.00
2017-09-18T03:19:23.532Z,8.90
2017-09-18T03:21:49.704Z,8.90
2017-09-18T03:24:15.910Z,8.80
2017-09-18T03:26:42.100Z,8.80
2017-09-18T03:29:09.032Z,8.90
2017-09-18T03:31:35.250Z,8.90
2017-09-18T03:34:01.465Z,8.90
2017-09-18T03:36:27.898Z,8.90
2017-09-18T03:38:54.070Z,9.00
2017-09-18T03:41:20.981Z,9.00
2017-09-18T03:43:47.191Z,9.00
2017-09-18T03:46:13.350Z,8.90
2017-09-18T03:48:39.523Z,8.90
2017-09-18T03:51:05.704Z,8.90
2017-09-18T03:53:31.863Z,8.90
2017-09-18T03:55:58.044Z,8.80
2017-09-18T03:58:24.243Z,8.80
2017-09-18T04:00:50.406Z,8.80
2017-09-18T04:03:16.579Z,8.70
2017-09-18T04:05:42.799Z,8.80
2017-09-18T04:08:08.965Z,8.80
2017-09-18T04:10:35.127Z,8.70
2017-09-18T04:13:01.333Z,8.70
2017-09-18T04:15:27.506Z,8.70
2017-09-18T04:17:53.680Z,8.70
2017-09-18T04:20:19.855Z,8.60
2017-09-18T04:22:46.761Z,8.50
2017-09-18T04:25:12.922Z,8.50
2017-09-18T04:27:39.850Z,8.40
2017-09-18T04:30:06.019Z,8.40
2017-09-18T04:32:32.187Z,8.40
2017-09-18T04:34:58.415Z,8.40
2017-09-18T04:37:24.595Z,8.30
2017-09-18T04:39:50.764Z,8.20
2017-09-18T04:42:16.980Z,8.10
2017-09-18T04:44:43.140Z,8.10
2017-09-18T04:47:09.344Z,8.10
2017-09-18T04:49:35.529Z,8.10
2017-09-18T04:52:01.723Z,8.10
2017-09-18T04:54:27.927Z,8.20
2017-09-18T04:56:54.095Z,8.20
2017-09-18T04:59:21.010Z,8.20
2017-09-18T05:01:47.213Z,8.30
2017-09-18T05:04:13.387Z,8.30
2017-09-18T05:06:39.569Z,8.30
2017-09-18T05:09:05.768Z,8.40
2017-09-18T05:11:32.665Z,8.40
2017-09-18T05:13:58.871Z,8.40
2017-09-18T05:16:25.049Z,8.40
2017-09-18T05:18:51.242Z,8.40
2017-09-18T05:21:17.435Z,8.40
2017-09-18T05:23:43.649Z,8.50
2017-09-18T05:26:10.560Z,8.50
2017-09-18T05:28:36.728Z,8.50
2017-09-18T05:31:03.677Z,8.60
2017-09-18T05:33:29.861Z,8.60
2017-09-18T05:35:56.054Z,8.60
2017-09-18T05:38:22.218Z,8.70
2017-09-18T05:40:48.401Z,8.90
2017-09-18T05:43:14.622Z,9.00
2017-09-18T05:45:40.815Z,9.10
2017-09-18T05:48:07.035Z,9.20
2017-09-18T05:50:33.252Z,9.30
2017-09-18T05:52:59.454Z,9.30
2017-09-18T05:55:25.639Z,9.40
2017-09-18T05:57:52.708Z,9.60
2017-09-18T06:00:18.903Z,9.50
2017-09-18T06:02:45.827Z,10.00
2017-09-18T06:05:12.037Z,9.90
2017-09-18T06:07:38.254Z,10.10
2017-09-18T06:10:04.483Z,10.20
2017-09-18T06:12:30.773Z,10.30
2017-09-18T06:14:57.704Z,10.70
2017-09-18T06:17:23.933Z,10.70
2017-09-18T06:19:50.129Z,10.90
2017-09-18T06:22:16.344Z,11.00
2017-09-18T06:24:42.576Z,11.00
2017-09-18T06:27:08.745Z,11.10
2017-09-18T06:29:34.927Z,11.20
2017-09-18T06:32:01.135Z,11.40
2017-09-18T06:34:28.065Z,11.80
2017-09-18T06:36:54.996Z,11.90
2017-09-18T06:39:21.220Z,11.80
2017-09-18T06:41:48.872Z,12.10
2017-09-18T06:44:15.040Z,12.00
2017-09-18T06:46:41.970Z,12.40
2017-09-18T06:49:08.871Z,12.30
2017-09-18T06:51:35.076Z,12.30
2017-09-18T06:54:01.245Z,12.60
2017-09-18T06:56:27.407Z,12.80
2017-09-18T06:58:54.364Z,12.70
2017-09-18T07:01:20.553Z,12.70
2017-09-18T07:03:46.732Z,13.00
2017-09-18T07:06:12.972Z,13.10
2017-09-18T07:08:39.161Z,13.30
2017-09-18T07:11:06.081Z,13.00
2017-09-18T07:13:32.257Z,13.00
2017-09-18T07:15:58.442Z,13.10
2017-09-18T07:18:24.626Z,13.20
2017-09-18T07:20:50.783Z,13.50
2017-09-18T07:23:17.020Z,13.60
2017-09-18T07:25:43.211Z,13.50
2017-09-18T07:28:09.422Z,13.70
2017-09-18T07:30:35.799Z,13.80
2017-09-18T07:33:02.030Z,14.10
2017-09-18T07:35:28.213Z,14.00
2017-09-18T07:37:54.419Z,13.90
2017-09-18T07:40:21.349Z,14.10
2017-09-18T07:42:47.549Z,14.10
2017-09-18T07:45:13.766Z,14.30
2017-09-18T07:47:39.943Z,14.70
2017-09-18T07:50:06.972Z,15.00
2017-09-18T07:52:33.195Z,14.90
2017-09-18T07:54:59.405Z,15.30
2017-09-18T07:57:25.595Z,15.10
2017-09-18T07:59:51.784Z,14.80
2017-09-18T08:02:17.961Z,15.10
2017-09-18T08:04:44.167Z,15.20
2017-09-18T08:07:11.084Z,15.20
2017-09-18T08:09:37.292Z,15.20
2017-09-18T08:12:03.474Z,15.50
2017-09-18T08:14:30.424Z,16.00
2017-09-18T08:16:56.620Z,16.00
2017-09-18T08:19:22.794Z,16.10
2017-09-18T08:21:49.028Z,16.30
2017-09-18T08:24:15.223Z,16.30
2017-09-18T08:26:42.200Z,16.30
2017-09-18T08:29:08.519Z,16.30
2017-09-18T08:31:34.735Z,16.40
2017-09-18T08:34:01.689Z,15.80
2017-09-18T08:36:27.933Z,15.70
2017-09-18T08:38:54.149Z,15.60
2017-09-18T08:41:20.413Z,16.00
2017-09-18T08:43:46.624Z,15.70
2017-09-18T08:46:12.828Z,16.40
2017-09-18T08:48:39.770Z,16.20
2017-09-18T08:51:06.687Z,16.20
2017-09-18T08:53:32.920Z,16.20
2017-09-18T08:55:59.095Z,16.30
2017-09-18T08:58:25.322Z,16.10
2017-09-18T09:00:51.522Z,16.00
2017-09-18T09:03:18.481Z,15.80
2017-09-18T09:05:44.686Z,15.80
2017-09-18T09:08:10.903Z,15.50
2017-09-18T09:10:37.108Z,15.90
2017-09-18T09:13:03.288Z,16.10
2017-09-18T09:15:30.202Z,15.90
2017-09-18T09:17:56.412Z,15.90
2017-09-18T09:20:22.616Z,15.50
2017-09-18T09:22:48.798Z,15.50
2017-09-18T09:25:15.785Z,15.40
2017-09-18T09:27:41.978Z,15.40
2017-09-18T09:30:08.157Z,15.80
2017-09-18T09:32:34.357Z,15.50
2017-09-18T09:35:00.537Z,15.60
2017-09-18T09:37:26.742Z,15.60
2017-09-18T09:39:52.944Z,16.30
2017-09-18T09:42:19.164Z,16.20
2017-09-18T09:44:45.399Z,16.10
2017-09-18T09:47:11.604Z,15.70
2017-09-18T09:49:37.804Z,15.90
2017-09-18T09:52:04.063Z,16.00
2017-09-18T09:54:31.020Z,16.20
2017-09-18T09:56:57.983Z,16.00
2017-09-18T09:59:24.228Z,16.00
2017-09-18T10:01:50.400Z,15.60
2017-09-18T10:04:16.601Z,15.60
2017-09-18T10:06:42.836Z,15.90
2017-09-18T10:09:08.996Z,16.30
2017-09-18T10:11:35.985Z,16.10
2017-09-18T10:14:02.221Z,16.10
2017-09-18T10:16:28.403Z,16.30
2017-09-18T10:18:55.364Z,17.20
2017-09-18T10:21:22.278Z,17.70
2017-09-18T10:23:48.472Z,17.60
2017-09-18T10:26:14.812Z,17.60
2017-09-18T10:28:40.999Z,17.40
2017-09-18T10:31:07.177Z,16.90
2017-09-18T10:33:33.383Z,16.80
2017-09-18T10:35:59.610Z,17.00
2017-09-18T10:38:25.807Z,18.00
2017-09-18T10:40:52.735Z,18.00
2017-09-18T10:43:19.660Z,18.30
2017-09-18T10:45:45.887Z,18.30
2017-09-18T10:48:12.085Z,18.50
2017-09-18T10:50:38.265Z,19.20
2017-09-18T10:53:05.269Z,19.50
2017-09-18T10:55:31.475Z,19.50
2017-09-18T10:57:57.692Z,19.30
2017-09-18T11:00:23.883Z,19.90
2017-09-18T11:02:50.042Z,19.20
2017-09-18T11:05:17.057Z,18.50
2017-09-18T11:07:43.228Z,18.50
2017-09-18T11:10:09.379Z,17.70
2017-09-18T11:12:35.595Z,17.50
2017-09-18T11:15:01.847Z,17.40
2017-09-18T11:17:28.055Z,17.80
2017-09-18T11:19:54.208Z,18.00
2017-09-18T11:22:20.394Z,18.00
2017-09-18T11:24:46.552Z,18.10
2017-09-18T11:27:13.340Z,18.60
2017-09-18T11:29:40.255Z,20.60
2017-09-18T11:32:06.417Z,20.50
2017-09-18T11:34:33.314Z,23.40
2017-09-18T11:37:00.232Z,23.30
2017-09-18T11:39:26.416Z,25.30
2017-09-18T11:41:52.595Z,25.80
2017-09-18T11:44:18.768Z,26.40
2017-09-18T11:46:44.950Z,28.30
2017-09-18T11:49:11.164Z,28.00
2017-09-18T11:51:37.318Z,28.60
2017-09-18T11:54:03.506Z,27.90
2017-09-18T11:56:30.473Z,27.50
2017-09-18T11:58:56.657Z,27.50
2017-09-18T12:01:22.830Z,28.10
2017-09-18T12:03:49.012Z,27.90
2017-09-18T12:06:15.184Z,27.90
2017-09-18T12:08:41.372Z,25.00
2017-09-18T12:11:07.549Z,24.40
2017-09-18T12:13:33.746Z,26.70
2017-09-18T12:16:00.683Z,24.40
2017-09-18T12:18:27.578Z,22.40
2017-09-18T12:20:53.767Z,22.30
2017-09-18T12:23:20.807Z,19.90
2017-09-18T12:25:47.747Z,19.90
2017-09-18T12:28:14.671Z,19.90
2017-09-18T12:30:40.843Z,19.90
2017-09-18T12:33:07.067Z,18.80
2017-09-18T12:35:33.235Z,20.10
2017-09-18T12:37:59.419Z,21.90
2017-09-18T12:40:25.631Z,23.60
2017-09-18T12:42:52.549Z,27.80
2017-09-18T12:45:18.718Z,27.70
2017-09-18T12:47:45.640Z,24.60
2017-09-18T12:50:12.676Z,24.50
2017-09-18T12:52:38.858Z,24.00
2017-09-18T12:55:05.135Z,23.80
2017-09-18T12:57:32.036Z,24.00
2017-09-18T12:59:58.216Z,24.00
2017-09-18T13:02:24.436Z,25.90
2017-09-18T13:04:51.383Z,26.10
2017-09-18T13:07:18.314Z,26.50
2017-09-18T13:09:44.536Z,26.50
2017-09-18T13:12:10.690Z,28.20
2017-09-18T13:14:36.887Z,29.60
2017-09-18T13:17:03.063Z,29.00
2017-09-18T13:19:29.965Z,25.30
2017-09-18T13:21:56.137Z,25.20
2017-09-18T13:24:23.073Z,25.30
2017-09-18T13:26:55.173Z,28.50
2017-09-18T13:29:21.318Z,28.50
2017-09-18T13:31:47.518Z,31.10
2017-09-18T13:34:13.677Z,30.10
2017-09-18T13:36:39.830Z,29.50
2017-09-18T13:39:06.030Z,27.30
2017-09-18T13:41:32.201Z,28.30
2017-09-18T13:43:58.385Z,31.40
2017-09-18T13:46:24.581Z,30.00
2017-09-18T13:48:50.746Z,27.10
2017-09-18T13:51:16.906Z,23.80
2017-09-18T13:53:43.229Z,21.40
2017-09-18T13:56:09.382Z,21.10
2017-09-18T13:58:36.320Z,20.10
2017-09-18T14:01:03.261Z,19.60
2017-09-18T14:03:30.227Z,20.50
2017-09-18T14:05:56.389Z,20.50
2017-09-18T14:08:22.554Z,20.70
2017-09-18T14:10:48.765Z,21.00
2017-09-18T14:13:14.967Z,21.60
2017-09-18T14:15:41.141Z,21.60
2017-09-18T14:18:07.327Z,21.70
2017-09-18T14:20:33.503Z,21.60
2017-09-18T14:23:00.443Z,21.20
2017-09-18T14:25:26.619Z,21.10
2017-09-18T14:27:52.804Z,21.20
2017-09-18T14:30:19.732Z,20.30
2017-09-18T14:32:45.888Z,20.30
2017-09-18T14:35:12.812Z,19.50
2017-09-18T14:37:39.042Z,19.40
2017-09-18T14:40:05.227Z,19.30
2017-09-18T14:42:31.422Z,18.70
2017-09-18T14:44:58.332Z,20.20
2017-09-18T14:47:24.520Z,20.20
2017-09-18T14:49:50.692Z,22.30
2017-09-18T14:52:16.854Z,21.60
2017-09-18T14:54:43.876Z,22.20
2017-09-18T14:57:10.050Z,22.10
2017-09-18T14:59:36.228Z,22.60
2017-09-18T15:02:03.143Z,24.30
2017-09-18T15:04:29.653Z,24.30
2017-09-18T15:06:55.816Z,22.70
2017-09-18T15:09:21.992Z,24.20
2017-09-18T15:11:48.170Z,25.60
2017-09-18T15:14:14.502Z,25.40
2017-09-18T15:16:40.652Z,25.60
2017-09-18T15:19:07.580Z,27.00
2017-09-18T15:21:33.820Z,26.90
2017-09-18T15:24:00.029Z,26.60
2017-09-18T15:26:26.235Z,24.90
2017-09-18T15:28:52.402Z,24.10
2017-09-18T15:31:18.593Z,25.60
2017-09-18T15:33:44.844Z,26.90
2017-09-18T15:36:11.017Z,27.10
2017-09-18T15:38:37.943Z,23.10
2017-09-18T15:41:04.884Z,21.20
2017-09-18T15:43:31.789Z,20.20
2017-09-18T15:45:57.963Z,20.10
2017-09-18T15:48:24.868Z,19.30
2017-09-18T15:50:51.043Z,19.30
2017-09-18T15:53:17.998Z,17.90
2017-09-18T15:55:44.943Z,17.60
2017-09-18T15:58:11.899Z,17.20
2017-09-18T16:00:38.091Z,17.20
2017-09-18T16:03:04.513Z,17.00
2017-09-18T16:05:30.685Z,16.80
2017-09-18T16:07:56.880Z,16.60
2017-09-18T16:10:23.064Z,16.40
2017-09-18T16:12:49.227Z,16.20
2017-09-18T16:15:15.396Z,16.30
2017-09-18T16:17:41.594Z,16.00
2017-09-18T16:20:07.816Z,16.00
2017-09-18T16:22:36.407Z,16.00
2017-09-18T16:25:02.582Z,16.00
2017-09-18T16:27:28.756Z,15.90
2017-09-18T16:29:55.674Z,16.10
2017-09-18T16:32:21.838Z,16.00
2017-09-18T16:34:48.084Z,16.20
2017-09-18T16:37:15.050Z,15.80
2017-09-18T16:39:41.238Z,15.80
2017-09-18T16:42:08.180Z,15.70
2017-09-18T16:44:34.533Z,15.70
2017-09-18T16:47:01.578Z,15.40
2017-09-18T16:49:27.784Z,15.30
2017-09-18T16:51:53.987Z,15.10
2017-09-18T16:54:20.175Z,14.90
2017-09-18T16:56:46.357Z,15.00
2017-09-18T16:59:12.611Z,15.10
2017-09-18T17:01:39.590Z,15.20
2017-09-18T17:04:05.817Z,15.10
2017-09-18T17:06:32.095Z,15.20
2017-09-18T17:08:58.307Z,15.20
2017-09-18T17:11:24.533Z,15.00
2017-09-18T17:13:50.729Z,14.90
2017-09-18T17:16:17.017Z,14.90
2017-09-18T17:18:43.449Z,14.70
2017-09-18T17:21:09.684Z,14.50
2017-09-18T17:23:35.843Z,14.40
2017-09-18T17:26:02.072Z,14.30
2017-09-18T17:28:28.276Z,14.20
2017-09-18T17:30:55.257Z,13.80
2017-09-18T17:33:21.553Z,13.80
2017-09-18T17:35:47.739Z,13.70
2017-09-18T17:38:13.959Z,13.60
2017-09-18T17:40:40.142Z,13.50
2017-09-18T17:43:07.079Z,13.30
2017-09-18T17:45:34.026Z,13.20
2017-09-18T17:48:00.302Z,13.20
2017-09-18T17:50:26.546Z,13.10
2017-09-18T17:52:52.742Z,13.10
2017-09-18T17:55:18.932Z,13.00
2017-09-18T17:57:45.100Z,12.80
2017-09-18T18:00:11.308Z,12.70
2017-09-18T18:02:38.218Z,12.50
2017-09-18T18:05:04.412Z,12.50
2017-09-18T18:07:30.623Z,12.50
2017-09-18T18:09:56.793Z,12.50
2017-09-18T18:12:22.997Z,12.30
2017-09-18T18:14:49.215Z,12.30
2017-09-18T18:17:15.428Z,12.30
2017-09-18T18:19:42.360Z,12.10
2017-09-18T18:22:09.301Z,12.00
2017-09-18T18:24:36.211Z,11.90
2017-09-18T18:27:02.407Z,11.90
2017-09-18T18:29:28.603Z,11.80
2017-09-18T18:31:55.550Z,11.90
2017-09-18T18:34:22.471Z,11.90
2017-09-18T18:36:48.705Z,11.80
2017-09-18T18:39:14.900Z,11.90
2017-09-18T18:41:41.101Z,11.90
2017-09-18T18:44:07.311Z,11.90
2017-09-18T18:46:34.268Z,11.80
2017-09-18T18:49:01.214Z,11.70
2017-09-18T18:51:28.184Z,11.70
2017-09-18T18:53:54.354Z,11.60
2017-09-18T18:56:20.512Z,11.60
2017-09-18T18:58:47.498Z,11.40
2017-09-18T19:01:13.759Z,11.40
2017-09-18T19:03:39.992Z,11.40
2017-09-18T19:06:06.192Z,11.30
2017-09-18T19:08:32.401Z,11.20
2017-09-18T19:10:58.652Z,11.20
2017-09-18T19:13:24.853Z,11.10
2017-09-18T19:15:51.088Z,11.10
2017-09-18T19:18:17.297Z,11.10
2017-09-18T19:20:43.504Z,11.00
2017-09-18T19:23:10.455Z,10.90
2017-09-18T19:25:37.402Z,11.00
2017-09-18T19:28:04.367Z,10.90
2017-09-18T19:30:30.565Z,10.90
2017-09-18T19:32:56.723Z,10.90
2017-09-18T19:35:22.936Z,10.90
2017-09-18T19:37:49.915Z,10.90
2017-09-18T19:40:16.104Z,10.90
2017-09-18T19:42:43.041Z,10.90
2017-09-18T19:45:09.268Z,10.90
2017-09-18T19:47:36.952Z,10.80
2017-09-18T19:50:04.220Z,10.90
2017-09-18T19:52:30.432Z,10.90
2017-09-18T19:54:57.364Z,10.80
2017-09-18T19:57:23.616Z,10.80
2017-09-18T20:06:34.712Z,10.80
2017-09-18T20:09:00.941Z,10.70
2017-09-18T20:11:27.537Z,10.70
2017-09-18T20:13:53.759Z,10.70
2017-09-18T20:16:19.952Z,10.60
2017-09-18T20:18:46.891Z,10.60
2017-09-18T20:21:13.850Z,10.60
2017-09-18T20:23:40.048Z,10.60
2017-09-18T20:26:06.203Z,10.50
2017-09-18T20:28:33.126Z,10.40
2017-09-18T20:30:59.347Z,10.40
2017-09-18T20:33:25.582Z,10.40
2017-09-18T20:35:51.801Z,10.30
2017-09-18T20:38:17.988Z,10.30
2017-09-18T20:40:44.185Z,10.30
2017-09-18T20:43:11.128Z,10.20
2017-09-18T20:45:38.047Z,10.20
2017-09-18T20:48:04.256Z,10.20
2017-09-18T20:50:30.427Z,10.10
2017-09-18T20:52:57.343Z,10.10
2017-09-18T20:55:23.536Z,10.00
2017-09-18T20:57:50.297Z,10.10
2017-09-18T21:00:16.473Z,10.10
2017-09-18T21:02:43.383Z,10.10
2017-09-18T21:05:09.539Z,10.00
2017-09-18T21:07:36.471Z,9.90
2017-09-18T21:10:02.729Z,9.90
2017-09-18T21:12:28.957Z,9.90
2017-09-18T21:14:55.142Z,9.90
2017-09-18T21:17:21.314Z,9.80
2017-09-18T21:19:47.494Z,9.80
2017-09-18T21:22:13.653Z,9.80
2017-09-18T21:24:40.581Z,9.70
2017-09-18T21:27:06.803Z,9.70
2017-09-18T21:29:32.977Z,9.70
2017-09-18T21:31:59.157Z,9.60
2017-09-18T21:34:25.357Z,9.60
2017-09-18T21:36:51.517Z,9.60
2017-09-18T21:39:17.747Z,9.50
2017-09-18T21:41:43.973Z,9.50
2017-09-18T21:44:10.129Z,9.50
2017-09-18T21:46:37.047Z,9.50
2017-09-18T21:49:03.231Z,9.40
2017-09-18T21:51:29.421Z,9.50
2017-09-18T21:53:56.324Z,9.50
2017-09-18T21:56:22.518Z,9.40
2017-09-18T21:58:48.683Z,9.50
2017-09-18T22:01:14.888Z,9.50
2017-09-18T22:03:41.057Z,9.50
2017-09-18T22:06:07.212Z,9.50
2017-09-18T22:08:34.153Z,9.50
2017-09-18T22:11:01.075Z,9.50
2017-09-18T22:13:27.251Z,9.40
2017-09-18T22:15:53.436Z,9.50
2017-09-18T22:18:19.579Z,9.50
2017-09-18T22:20:46.542Z,9.40
2017-09-18T22:23:12.726Z,9.40
2017-09-18T22:25:38.888Z,9.40
2017-09-18T22:28:05.792Z,9.30
2017-09-18T22:30:31.970Z,9.20
2017-09-18T22:32:58.138Z,9.20
2017-09-18T22:35:24.280Z,9.20
2017-09-18T22:37:50.460Z,9.20
2017-09-18T22:40:16.664Z,9.10
2017-09-18T22:42:43.582Z,9.00
2017-09-18T22:45:09.764Z,9.00
2017-09-18T22:47:35.920Z,9.00
2017-09-18T22:50:02.131Z,9.00
2017-09-18T22:52:28.292Z,8.90
2017-09-18T22:54:54.449Z,8.80
2017-09-18T22:57:21.383Z,8.70
2017-09-18T22:59:48.335Z,8.70
2017-09-18T23:02:15.283Z,8.60
2017-09-18T23:04:42.185Z,8.60
2017-09-18T23:07:08.325Z,8.60
2017-09-18T23:09:34.540Z,8.60
2017-09-18T23:12:00.719Z,8.50
2017-09-18T23:14:26.903Z,8.50
2017-09-18T23:16:53.427Z,8.40
2017-09-18T23:19:19.579Z,8.40
2017-09-18T23:21:45.733Z,8.40
2017-09-18T23:24:12.652Z,8.40
2017-09-18T23:26:38.841Z,8.30
2017-09-18T23:29:05.035Z,8.40
2017-09-18T23:31:32.083Z,8.30
2017-09-18T23:33:59.062Z,8.40
2017-09-18T23:36:25.268Z,8.40
2017-09-18T23:38:51.438Z,8.40
2017-09-18T23:41:17.620Z,8.40
2017-09-18T23:43:43.830Z,8.30
2017-09-18T23:46:10.736Z,8.40
2017-09-18T23:48:36.948Z,8.40
2017-09-18T23:51:03.122Z,8.40
2017-09-18T23:53:30.018Z,8.20
2017-09-18T23:55:56.214Z,8.20
2017-09-18T23:58:23.134Z,8.00
